sensor_id;sensor_type;location;lat;lon;timestamp;pressure;altitude;pressure_sealevel;temperature;humidity
50632;BME280;49583;45.590;-122.498;2023-05-12T00:00:24;101297.80;;;27.39;33.84
50632;BME280;49583;45.590;-122.498;2023-05-12T00:02:50;101299.24;;;27.43;33.65
50632;BME280;49583;45.590;-122.498;2023-05-12T00:05:03;101304.55;;;27.45;33.69
50632;BME280;49583;45.590;-122.498;2023-05-12T00:07:16;101301.09;;;27.48;33.42
50632;BME280;49583;45.590;-122.498;2023-05-12T00:09:29;101300.24;;;27.49;33.22
50632;BME280;49583;45.590;-122.498;2023-05-12T00:11:41;101298.81;;;27.48;32.96
50632;BME280;49583;45.590;-122.498;2023-05-12T00:13:56;101297.55;;;27.49;32.98
50632;BME280;49583;45.590;-122.498;2023-05-12T00:16:09;101291.59;;;27.48;32.79
50632;BME280;49583;45.590;-122.498;2023-05-12T00:18:22;101296.31;;;27.47;32.67
50632;BME280;49583;45.590;-122.498;2023-05-12T00:20:35;101290.64;;;27.46;32.60
50632;BME280;49583;45.590;-122.498;2023-05-12T00:22:47;101290.03;;;27.47;32.59
50632;BME280;49583;45.590;-122.498;2023-05-12T00:25:00;101289.73;;;27.46;32.16
50632;BME280;49583;45.590;-122.498;2023-05-12T00:27:12;101289.17;;;27.46;32.13
50632;BME280;49583;45.590;-122.498;2023-05-12T00:29:26;101286.75;;;27.47;31.93
50632;BME280;49583;45.590;-122.498;2023-05-12T00:31:38;101284.97;;;27.47;31.90
50632;BME280;49583;45.590;-122.498;2023-05-12T00:33:51;101287.80;;;27.48;31.83
50632;BME280;49583;45.590;-122.498;2023-05-12T00:36:05;101286.05;;;27.50;31.71
50632;BME280;49583;45.590;-122.498;2023-05-12T00:38:18;101286.97;;;27.51;31.49
50632;BME280;49583;45.590;-122.498;2023-05-12T00:40:30;101285.74;;;27.52;31.36
50632;BME280;49583;45.590;-122.498;2023-05-12T00:42:42;101290.95;;;27.55;31.33
50632;BME280;49583;45.590;-122.498;2023-05-12T00:44:55;101292.34;;;27.56;31.06
50632;BME280;49583;45.590;-122.498;2023-05-12T00:47:08;101289.02;;;27.55;30.89
50632;BME280;49583;45.590;-122.498;2023-05-12T00:49:21;101287.33;;;27.53;30.71
50632;BME280;49583;45.590;-122.498;2023-05-12T00:51:33;101287.31;;;27.50;30.57
50632;BME280;49583;45.590;-122.498;2023-05-12T00:53:46;101284.52;;;27.46;30.69
50632;BME280;49583;45.590;-122.498;2023-05-12T00:55:59;101282.08;;;27.45;30.81
50632;BME280;49583;45.590;-122.498;2023-05-12T00:58:12;101282.71;;;27.43;31.06
50632;BME280;49583;45.590;-122.498;2023-05-12T01:00:25;101285.00;;;27.40;30.90
50632;BME280;49583;45.590;-122.498;2023-05-12T01:02:38;101285.54;;;27.38;30.92
50632;BME280;49583;45.590;-122.498;2023-05-12T01:04:51;101287.44;;;27.37;30.79
50632;BME280;49583;45.590;-122.498;2023-05-12T01:07:07;101291.02;;;27.34;30.72
50632;BME280;49583;45.590;-122.498;2023-05-12T01:09:21;101281.40;;;27.29;30.71
50632;BME280;49583;45.590;-122.498;2023-05-12T01:11:35;101283.40;;;27.27;30.53
50632;BME280;49583;45.590;-122.498;2023-05-12T01:13:48;101282.68;;;27.23;30.53
50632;BME280;49583;45.590;-122.498;2023-05-12T01:16:02;101283.41;;;27.20;30.40
50632;BME280;49583;45.590;-122.498;2023-05-12T01:18:16;101280.61;;;27.18;30.65
50632;BME280;49583;45.590;-122.498;2023-05-12T01:20:31;101278.85;;;27.14;30.70
50632;BME280;49583;45.590;-122.498;2023-05-12T01:22:45;101278.42;;;27.12;30.45
50632;BME280;49583;45.590;-122.498;2023-05-12T01:25:00;101274.73;;;27.10;30.56
50632;BME280;49583;45.590;-122.498;2023-05-12T01:27:14;101275.76;;;27.09;30.63
50632;BME280;49583;45.590;-122.498;2023-05-12T01:29:29;101278.94;;;27.07;30.47
50632;BME280;49583;45.590;-122.498;2023-05-12T01:31:43;101278.29;;;27.05;30.29
50632;BME280;49583;45.590;-122.498;2023-05-12T01:33:56;101277.32;;;27.01;30.22
50632;BME280;49583;45.590;-122.498;2023-05-12T01:36:10;101273.22;;;26.97;30.27
50632;BME280;49583;45.590;-122.498;2023-05-12T01:38:23;101274.95;;;26.95;30.11
50632;BME280;49583;45.590;-122.498;2023-05-12T01:40:36;101273.48;;;26.92;30.06
50632;BME280;49583;45.590;-122.498;2023-05-12T01:42:48;101274.25;;;26.88;30.14
50632;BME280;49583;45.590;-122.498;2023-05-12T01:45:02;101274.17;;;26.83;30.34
50632;BME280;49583;45.590;-122.498;2023-05-12T01:47:15;101270.21;;;26.80;30.33
50632;BME280;49583;45.590;-122.498;2023-05-12T01:49:34;101269.55;;;26.76;30.06
50632;BME280;49583;45.590;-122.498;2023-05-12T01:51:50;101267.02;;;26.72;30.18
50632;BME280;49583;45.590;-122.498;2023-05-12T01:54:09;101265.90;;;26.68;30.07
50632;BME280;49583;45.590;-122.498;2023-05-12T01:56:21;101265.05;;;26.64;30.31
50632;BME280;49583;45.590;-122.498;2023-05-12T01:58:34;101263.94;;;26.60;30.21
50632;BME280;49583;45.590;-122.498;2023-05-12T02:00:47;101263.49;;;26.57;30.45
50632;BME280;49583;45.590;-122.498;2023-05-12T02:03:00;101267.98;;;26.52;30.42
50632;BME280;49583;45.590;-122.498;2023-05-12T02:05:14;101265.73;;;26.48;30.30
50632;BME280;49583;45.590;-122.498;2023-05-12T02:07:29;101266.67;;;26.44;30.42
50632;BME280;49583;45.590;-122.498;2023-05-12T02:09:44;101271.16;;;26.41;30.39
50632;BME280;49583;45.590;-122.498;2023-05-12T02:11:57;101266.71;;;26.38;30.32
50632;BME280;49583;45.590;-122.498;2023-05-12T02:14:11;101274.96;;;26.36;30.21
50632;BME280;49583;45.590;-122.498;2023-05-12T02:16:24;101275.18;;;26.32;30.30
50632;BME280;49583;45.590;-122.498;2023-05-12T02:18:37;101273.45;;;26.29;30.23
50632;BME280;49583;45.590;-122.498;2023-05-12T02:20:50;101275.41;;;26.26;30.37
50632;BME280;49583;45.590;-122.498;2023-05-12T02:23:03;101277.63;;;26.21;30.21
50632;BME280;49583;45.590;-122.498;2023-05-12T02:25:16;101278.04;;;26.18;30.56
50632;BME280;49583;45.590;-122.498;2023-05-12T02:27:28;101279.92;;;26.15;30.54
50632;BME280;49583;45.590;-122.498;2023-05-12T02:29:41;101287.74;;;26.11;30.50
50632;BME280;49583;45.590;-122.498;2023-05-12T02:31:55;101282.31;;;26.05;30.29
50632;BME280;49583;45.590;-122.498;2023-05-12T02:34:08;101291.29;;;26.01;30.44
50632;BME280;49583;45.590;-122.498;2023-05-12T02:36:20;101288.08;;;25.96;30.61
50632;BME280;49583;45.590;-122.498;2023-05-12T02:38:33;101292.31;;;25.92;30.73
50632;BME280;49583;45.590;-122.498;2023-05-12T02:40:47;101290.75;;;25.88;30.63
50632;BME280;49583;45.590;-122.498;2023-05-12T02:43:00;101293.70;;;25.83;30.61
50632;BME280;49583;45.590;-122.498;2023-05-12T02:45:14;101299.67;;;25.80;30.72
50632;BME280;49583;45.590;-122.498;2023-05-12T02:47:27;101301.48;;;25.76;30.47
50632;BME280;49583;45.590;-122.498;2023-05-12T02:49:41;101306.46;;;25.71;30.46
50632;BME280;49583;45.590;-122.498;2023-05-12T02:51:54;101306.42;;;25.66;30.67
50632;BME280;49583;45.590;-122.498;2023-05-12T02:54:07;101305.19;;;25.62;30.70
50632;BME280;49583;45.590;-122.498;2023-05-12T02:56:20;101304.13;;;25.57;30.65
50632;BME280;49583;45.590;-122.498;2023-05-12T02:58:33;101307.10;;;25.51;30.62
50632;BME280;49583;45.590;-122.498;2023-05-12T03:00:46;101306.45;;;25.46;30.48
50632;BME280;49583;45.590;-122.498;2023-05-12T03:03:11;101304.59;;;25.41;30.37
50632;BME280;49583;45.590;-122.498;2023-05-12T03:05:24;101305.42;;;25.38;30.47
50632;BME280;49583;45.590;-122.498;2023-05-12T03:07:37;101302.89;;;25.34;30.58
50632;BME280;49583;45.590;-122.498;2023-05-12T03:09:49;101301.64;;;25.30;30.68
50632;BME280;49583;45.590;-122.498;2023-05-12T03:12:04;101306.98;;;25.28;30.96
50632;BME280;49583;45.590;-122.498;2023-05-12T03:14:16;101309.42;;;25.25;31.11
50632;BME280;49583;45.590;-122.498;2023-05-12T03:16:29;101306.84;;;25.20;31.29
50632;BME280;49583;45.590;-122.498;2023-05-12T03:18:42;101307.52;;;25.15;31.41
50632;BME280;49583;45.590;-122.498;2023-05-12T03:20:55;101306.55;;;25.10;31.58
50632;BME280;49583;45.590;-122.498;2023-05-12T03:23:08;101306.14;;;25.05;31.77
50632;BME280;49583;45.590;-122.498;2023-05-12T03:25:20;101305.04;;;24.99;31.95
50632;BME280;49583;45.590;-122.498;2023-05-12T03:27:35;101307.77;;;24.93;31.98
50632;BME280;49583;45.590;-122.498;2023-05-12T03:29:48;101306.55;;;24.86;32.14
50632;BME280;49583;45.590;-122.498;2023-05-12T03:32:01;101307.56;;;24.82;32.17
50632;BME280;49583;45.590;-122.498;2023-05-12T03:34:14;101308.80;;;24.75;32.28
50632;BME280;49583;45.590;-122.498;2023-05-12T03:36:26;101307.36;;;24.69;32.24
50632;BME280;49583;45.590;-122.498;2023-05-12T03:38:39;101306.89;;;24.62;32.26
50632;BME280;49583;45.590;-122.498;2023-05-12T03:41:04;101306.23;;;24.54;32.35
50632;BME280;49583;45.590;-122.498;2023-05-12T03:43:18;101307.07;;;24.49;32.51
50632;BME280;49583;45.590;-122.498;2023-05-12T03:45:30;101311.08;;;24.43;32.68
50632;BME280;49583;45.590;-122.498;2023-05-12T03:47:43;101311.46;;;24.37;32.80
50632;BME280;49583;45.590;-122.498;2023-05-12T03:49:56;101312.98;;;24.31;32.92
50632;BME280;49583;45.590;-122.498;2023-05-12T03:52:11;101311.52;;;24.26;32.96
50632;BME280;49583;45.590;-122.498;2023-05-12T03:54:25;101317.73;;;24.19;33.03
50632;BME280;49583;45.590;-122.498;2023-05-12T03:56:38;101318.22;;;24.12;33.15
50632;BME280;49583;45.590;-122.498;2023-05-12T03:58:51;101316.61;;;24.06;33.18
50632;BME280;49583;45.590;-122.498;2023-05-12T04:01:04;101311.63;;;24.00;33.44
50632;BME280;49583;45.590;-122.498;2023-05-12T04:03:17;101317.83;;;23.95;33.56
50632;BME280;49583;45.590;-122.498;2023-05-12T04:05:30;101320.69;;;23.90;33.59
50632;BME280;49583;45.590;-122.498;2023-05-12T04:07:42;101325.38;;;23.84;33.83
50632;BME280;49583;45.590;-122.498;2023-05-12T04:09:55;101330.09;;;23.77;33.93
50632;BME280;49583;45.590;-122.498;2023-05-12T04:12:08;101328.30;;;23.71;34.15
50632;BME280;49583;45.590;-122.498;2023-05-12T04:14:21;101329.20;;;23.63;34.21
50632;BME280;49583;45.590;-122.498;2023-05-12T04:16:47;101331.73;;;23.56;34.43
50632;BME280;49583;45.590;-122.498;2023-05-12T04:18:59;101328.52;;;23.50;34.61
50632;BME280;49583;45.590;-122.498;2023-05-12T04:21:12;101329.60;;;23.43;34.88
50632;BME280;49583;45.590;-122.498;2023-05-12T04:23:25;101327.69;;;23.35;35.03
50632;BME280;49583;45.590;-122.498;2023-05-12T04:25:43;101336.27;;;23.30;35.14
50632;BME280;49583;45.590;-122.498;2023-05-12T04:27:55;101336.32;;;23.23;35.45
50632;BME280;49583;45.590;-122.498;2023-05-12T04:30:10;101336.29;;;23.17;35.55
50632;BME280;49583;45.590;-122.498;2023-05-12T04:32:25;101338.98;;;23.10;35.76
50632;BME280;49583;45.590;-122.498;2023-05-12T04:34:38;101341.38;;;23.02;35.78
50632;BME280;49583;45.590;-122.498;2023-05-12T04:36:50;101343.89;;;22.96;35.94
50632;BME280;49583;45.590;-122.498;2023-05-12T04:39:03;101347.44;;;22.90;36.17
50632;BME280;49583;45.590;-122.498;2023-05-12T04:41:16;101349.55;;;22.84;36.56
50632;BME280;49583;45.590;-122.498;2023-05-12T04:43:29;101354.66;;;22.79;36.69
50632;BME280;49583;45.590;-122.498;2023-05-12T04:45:46;101357.55;;;22.72;36.76
50632;BME280;49583;45.590;-122.498;2023-05-12T04:47:58;101359.67;;;22.64;36.84
50632;BME280;49583;45.590;-122.498;2023-05-12T04:50:13;101364.27;;;22.57;36.96
50632;BME280;49583;45.590;-122.498;2023-05-12T04:52:26;101365.38;;;22.47;37.22
50632;BME280;49583;45.590;-122.498;2023-05-12T04:54:38;101362.90;;;22.38;37.29
50632;BME280;49583;45.590;-122.498;2023-05-12T04:56:51;101364.08;;;22.30;37.18
50632;BME280;49583;45.590;-122.498;2023-05-12T04:59:04;101368.66;;;22.22;37.27
50632;BME280;49583;45.590;-122.498;2023-05-12T05:01:17;101369.73;;;22.15;37.36
50632;BME280;49583;45.590;-122.498;2023-05-12T05:03:30;101373.73;;;22.08;37.69
50632;BME280;49583;45.590;-122.498;2023-05-12T05:05:43;101371.69;;;22.02;37.59
50632;BME280;49583;45.590;-122.498;2023-05-12T05:07:55;101373.19;;;21.97;37.76
50632;BME280;49583;45.590;-122.498;2023-05-12T05:10:11;101377.91;;;21.93;37.96
50632;BME280;49583;45.590;-122.498;2023-05-12T05:12:25;101380.37;;;21.89;38.22
50632;BME280;49583;45.590;-122.498;2023-05-12T05:14:37;101383.42;;;21.86;38.28
50632;BME280;49583;45.590;-122.498;2023-05-12T05:16:54;101393.83;;;21.82;38.52
50632;BME280;49583;45.590;-122.498;2023-05-12T05:19:06;101393.10;;;21.78;38.46
50632;BME280;49583;45.590;-122.498;2023-05-12T05:21:32;101394.44;;;21.74;38.52
50632;BME280;49583;45.590;-122.498;2023-05-12T05:23:46;101395.29;;;21.70;38.84
50632;BME280;49583;45.590;-122.498;2023-05-12T05:25:58;101398.09;;;21.62;39.02
50632;BME280;49583;45.590;-122.498;2023-05-12T05:28:11;101397.75;;;21.58;39.42
50632;BME280;49583;45.590;-122.498;2023-05-12T05:30:23;101402.89;;;21.54;39.62
50632;BME280;49583;45.590;-122.498;2023-05-12T05:32:36;101404.79;;;21.49;39.76
50632;BME280;49583;45.590;-122.498;2023-05-12T05:34:50;101413.77;;;21.44;40.09
50632;BME280;49583;45.590;-122.498;2023-05-12T05:37:02;101413.61;;;21.36;40.30
50632;BME280;49583;45.590;-122.498;2023-05-12T05:39:17;101413.22;;;21.28;40.54
50632;BME280;49583;45.590;-122.498;2023-05-12T05:41:30;101418.48;;;21.20;40.70
50632;BME280;49583;45.590;-122.498;2023-05-12T05:43:43;101418.30;;;21.10;40.91
50632;BME280;49583;45.590;-122.498;2023-05-12T05:45:57;101415.71;;;20.99;41.22
50632;BME280;49583;45.590;-122.498;2023-05-12T05:48:09;101415.80;;;20.91;41.57
50632;BME280;49583;45.590;-122.498;2023-05-12T05:50:22;101417.61;;;20.84;42.02
50632;BME280;49583;45.590;-122.498;2023-05-12T05:52:34;101414.23;;;20.79;42.28
50632;BME280;49583;45.590;-122.498;2023-05-12T05:54:47;101417.13;;;20.75;42.46
50632;BME280;49583;45.590;-122.498;2023-05-12T05:57:00;101422.66;;;20.72;42.65
50632;BME280;49583;45.590;-122.498;2023-05-12T05:59:16;101425.13;;;20.69;42.63
50632;BME280;49583;45.590;-122.498;2023-05-12T06:01:32;101428.04;;;20.66;42.84
50632;BME280;49583;45.590;-122.498;2023-05-12T06:03:46;101427.98;;;20.62;42.95
50632;BME280;49583;45.590;-122.498;2023-05-12T06:05:59;101428.46;;;20.60;43.08
50632;BME280;49583;45.590;-122.498;2023-05-12T06:08:11;101431.67;;;20.58;43.21
50632;BME280;49583;45.590;-122.498;2023-05-12T06:10:24;101432.56;;;20.55;43.37
50632;BME280;49583;45.590;-122.498;2023-05-12T06:12:37;101436.90;;;20.50;43.50
50632;BME280;49583;45.590;-122.498;2023-05-12T06:14:50;101439.30;;;20.48;43.69
50632;BME280;49583;45.590;-122.498;2023-05-12T06:17:03;101435.82;;;20.44;43.82
50632;BME280;49583;45.590;-122.498;2023-05-12T06:19:21;101441.58;;;20.41;43.92
50632;BME280;49583;45.590;-122.498;2023-05-12T06:21:34;101440.09;;;20.37;43.95
50632;BME280;49583;45.590;-122.498;2023-05-12T06:23:47;101444.23;;;20.32;44.03
50632;BME280;49583;45.590;-122.498;2023-05-12T06:26:00;101451.14;;;20.30;44.16
50632;BME280;49583;45.590;-122.498;2023-05-12T06:28:13;101450.86;;;20.26;44.13
50632;BME280;49583;45.590;-122.498;2023-05-12T06:30:26;101453.42;;;20.21;44.32
50632;BME280;49583;45.590;-122.498;2023-05-12T06:32:39;101454.33;;;20.19;44.52
50632;BME280;49583;45.590;-122.498;2023-05-12T06:34:52;101455.36;;;20.16;44.58
50632;BME280;49583;45.590;-122.498;2023-05-12T06:37:05;101455.14;;;20.13;44.71
50632;BME280;49583;45.590;-122.498;2023-05-12T06:39:18;101453.09;;;20.11;44.76
50632;BME280;49583;45.590;-122.498;2023-05-12T06:41:30;101456.04;;;20.09;44.78
50632;BME280;49583;45.590;-122.498;2023-05-12T06:43:45;101460.41;;;20.07;44.91
50632;BME280;49583;45.590;-122.498;2023-05-12T06:45:58;101457.58;;;20.03;45.04
50632;BME280;49583;45.590;-122.498;2023-05-12T06:48:11;101456.72;;;19.99;45.03
50632;BME280;49583;45.590;-122.498;2023-05-12T06:50:23;101459.13;;;19.96;45.13
50632;BME280;49583;45.590;-122.498;2023-05-12T06:52:36;101458.90;;;19.93;45.24
50632;BME280;49583;45.590;-122.498;2023-05-12T06:54:51;101462.09;;;19.90;45.31
50632;BME280;49583;45.590;-122.498;2023-05-12T06:57:04;101461.63;;;19.86;45.47
50632;BME280;49583;45.590;-122.498;2023-05-12T06:59:17;101460.92;;;19.82;45.51
50632;BME280;49583;45.590;-122.498;2023-05-12T07:01:29;101457.70;;;19.80;45.64
50632;BME280;49583;45.590;-122.498;2023-05-12T07:03:41;101454.92;;;19.76;45.71
50632;BME280;49583;45.590;-122.498;2023-05-12T07:05:54;101453.75;;;19.71;45.81
50632;BME280;49583;45.590;-122.498;2023-05-12T07:08:09;101460.58;;;19.69;45.83
50632;BME280;49583;45.590;-122.498;2023-05-12T07:10:22;101463.94;;;19.66;45.97
50632;BME280;49583;45.590;-122.498;2023-05-12T07:12:34;101466.09;;;19.64;46.07
50632;BME280;49583;45.590;-122.498;2023-05-12T07:14:48;101465.06;;;19.59;46.05
50632;BME280;49583;45.590;-122.498;2023-05-12T07:17:00;101473.41;;;19.56;46.10
50632;BME280;49583;45.590;-122.498;2023-05-12T07:19:13;101473.26;;;19.54;46.16
50632;BME280;49583;45.590;-122.498;2023-05-12T07:21:26;101477.15;;;19.51;46.36
50632;BME280;49583;45.590;-122.498;2023-05-12T07:23:39;101474.61;;;19.47;46.43
50632;BME280;49583;45.590;-122.498;2023-05-12T07:25:52;101474.85;;;19.41;46.49
50632;BME280;49583;45.590;-122.498;2023-05-12T07:28:04;101479.86;;;19.36;46.64
50632;BME280;49583;45.590;-122.498;2023-05-12T07:30:17;101484.70;;;19.31;46.73
50632;BME280;49583;45.590;-122.498;2023-05-12T07:32:31;101484.71;;;19.26;46.88
50632;BME280;49583;45.590;-122.498;2023-05-12T07:34:44;101488.05;;;19.19;46.91
50632;BME280;49583;45.590;-122.498;2023-05-12T07:36:56;101490.91;;;19.14;47.09
50632;BME280;49583;45.590;-122.498;2023-05-12T07:39:11;101488.39;;;19.10;47.33
50632;BME280;49583;45.590;-122.498;2023-05-12T07:41:29;101486.31;;;19.05;47.30
50632;BME280;49583;45.590;-122.498;2023-05-12T07:43:42;101489.58;;;19.00;47.45
50632;BME280;49583;45.590;-122.498;2023-05-12T07:45:55;101492.98;;;18.94;47.59
50632;BME280;49583;45.590;-122.498;2023-05-12T07:48:09;101497.83;;;18.88;47.68
50632;BME280;49583;45.590;-122.498;2023-05-12T07:50:22;101501.86;;;18.82;48.01
50632;BME280;49583;45.590;-122.498;2023-05-12T07:52:34;101499.33;;;18.77;48.11
50632;BME280;49583;45.590;-122.498;2023-05-12T07:54:47;101500.98;;;18.71;48.26
50632;BME280;49583;45.590;-122.498;2023-05-12T07:56:59;101503.75;;;18.66;48.45
50632;BME280;49583;45.590;-122.498;2023-05-12T07:59:12;101507.46;;;18.60;48.53
50632;BME280;49583;45.590;-122.498;2023-05-12T08:01:25;101505.85;;;18.55;48.69
50632;BME280;49583;45.590;-122.498;2023-05-12T08:03:37;101513.04;;;18.47;48.82
50632;BME280;49583;45.590;-122.498;2023-05-12T08:05:50;101507.88;;;18.41;48.92
50632;BME280;49583;45.590;-122.498;2023-05-12T08:08:02;101509.60;;;18.36;49.22
50632;BME280;49583;45.590;-122.498;2023-05-12T08:10:15;101513.31;;;18.31;49.26
50632;BME280;49583;45.590;-122.498;2023-05-12T08:12:28;101518.13;;;18.28;49.52
50632;BME280;49583;45.590;-122.498;2023-05-12T08:14:41;101518.90;;;18.22;49.69
50632;BME280;49583;45.590;-122.498;2023-05-12T08:16:53;101525.79;;;18.21;49.68
50632;BME280;49583;45.590;-122.498;2023-05-12T08:19:06;101523.96;;;18.17;49.86
50632;BME280;49583;45.590;-122.498;2023-05-12T08:21:18;101528.77;;;18.12;49.96
50632;BME280;49583;45.590;-122.498;2023-05-12T08:23:31;101530.02;;;18.06;50.02
50632;BME280;49583;45.590;-122.498;2023-05-12T08:25:44;101527.53;;;18.00;50.24
50632;BME280;49583;45.590;-122.498;2023-05-12T08:27:57;101529.33;;;17.95;50.40
50632;BME280;49583;45.590;-122.498;2023-05-12T08:30:11;101531.29;;;17.91;50.59
50632;BME280;49583;45.590;-122.498;2023-05-12T08:32:24;101531.27;;;17.87;50.63
50632;BME280;49583;45.590;-122.498;2023-05-12T08:34:37;101533.38;;;17.82;50.81
50632;BME280;49583;45.590;-122.498;2023-05-12T08:36:50;101532.41;;;17.78;50.87
50632;BME280;49583;45.590;-122.498;2023-05-12T08:39:03;101536.89;;;17.73;50.86
50632;BME280;49583;45.590;-122.498;2023-05-12T08:41:18;101536.70;;;17.68;50.92
50632;BME280;49583;45.590;-122.498;2023-05-12T08:43:36;101541.11;;;17.63;51.12
50632;BME280;49583;45.590;-122.498;2023-05-12T08:45:50;101541.99;;;17.59;51.26
50632;BME280;49583;45.590;-122.498;2023-05-12T08:48:07;101540.13;;;17.52;51.42
50632;BME280;49583;45.590;-122.498;2023-05-12T08:50:22;101544.60;;;17.47;51.50
50632;BME280;49583;45.590;-122.498;2023-05-12T08:52:37;101544.81;;;17.41;51.68
50632;BME280;49583;45.590;-122.498;2023-05-12T08:54:51;101541.67;;;17.35;51.74
50632;BME280;49583;45.590;-122.498;2023-05-12T08:57:05;101537.20;;;17.29;51.98
50632;BME280;49583;45.590;-122.498;2023-05-12T08:59:21;101541.30;;;17.25;51.99
50632;BME280;49583;45.590;-122.498;2023-05-12T09:01:36;101539.41;;;17.19;52.17
50632;BME280;49583;45.590;-122.498;2023-05-12T09:03:52;101541.27;;;17.12;52.22
50632;BME280;49583;45.590;-122.498;2023-05-12T09:06:07;101545.02;;;17.08;52.46
50632;BME280;49583;45.590;-122.498;2023-05-12T09:08:20;101547.89;;;17.03;52.64
50632;BME280;49583;45.590;-122.498;2023-05-12T09:10:33;101550.63;;;16.97;52.65
50632;BME280;49583;45.590;-122.498;2023-05-12T09:12:47;101553.66;;;16.92;52.76
50632;BME280;49583;45.590;-122.498;2023-05-12T09:15:06;101547.77;;;16.86;52.93
50632;BME280;49583;45.590;-122.498;2023-05-12T09:17:20;101548.71;;;16.80;53.08
50632;BME280;49583;45.590;-122.498;2023-05-12T09:19:32;101550.09;;;16.76;53.15
50632;BME280;49583;45.590;-122.498;2023-05-12T09:21:45;101555.27;;;16.70;53.37
50632;BME280;49583;45.590;-122.498;2023-05-12T09:24:00;101562.10;;;16.67;53.42
50632;BME280;49583;45.590;-122.498;2023-05-12T09:26:18;101561.73;;;16.62;53.49
50632;BME280;49583;45.590;-122.498;2023-05-12T09:28:38;101565.42;;;16.55;53.63
50632;BME280;49583;45.590;-122.498;2023-05-12T09:30:50;101568.11;;;16.49;53.64
50632;BME280;49583;45.590;-122.498;2023-05-12T09:33:13;101562.36;;;16.42;53.78
50632;BME280;49583;45.590;-122.498;2023-05-12T09:35:26;101562.31;;;16.39;54.02
50632;BME280;49583;45.590;-122.498;2023-05-12T09:37:39;101562.35;;;16.36;54.12
50632;BME280;49583;45.590;-122.498;2023-05-12T09:40:00;101561.91;;;16.31;54.24
50632;BME280;49583;45.590;-122.498;2023-05-12T09:42:16;101564.70;;;16.28;54.39
50632;BME280;49583;45.590;-122.498;2023-05-12T09:44:28;101561.91;;;16.24;54.54
50632;BME280;49583;45.590;-122.498;2023-05-12T09:46:43;101561.45;;;16.21;54.67
50632;BME280;49583;45.590;-122.498;2023-05-12T09:48:57;101565.69;;;16.18;54.85
50632;BME280;49583;45.590;-122.498;2023-05-12T09:51:11;101561.47;;;16.14;54.88
50632;BME280;49583;45.590;-122.498;2023-05-12T09:53:23;101565.30;;;16.12;54.94
50632;BME280;49583;45.590;-122.498;2023-05-12T09:55:36;101565.02;;;16.10;55.13
50632;BME280;49583;45.590;-122.498;2023-05-12T09:57:49;101568.57;;;16.08;55.18
50632;BME280;49583;45.590;-122.498;2023-05-12T10:00:02;101572.48;;;16.06;55.12
50632;BME280;49583;45.590;-122.498;2023-05-12T10:03:02;101566.73;;;16.01;55.29
50632;BME280;49583;45.590;-122.498;2023-05-12T10:05:44;101571.29;;;15.99;55.30
50632;BME280;49583;45.590;-122.498;2023-05-12T10:08:20;101577.31;;;15.95;55.47
50632;BME280;49583;45.590;-122.498;2023-05-12T10:10:57;101576.59;;;15.90;55.48
50632;BME280;49583;45.590;-122.498;2023-05-12T10:13:31;101583.72;;;15.85;55.57
50632;BME280;49583;45.590;-122.498;2023-05-12T10:16:04;101583.73;;;15.81;55.73
50632;BME280;49583;45.590;-122.498;2023-05-12T10:18:38;101580.71;;;15.78;55.81
50632;BME280;49583;45.590;-122.498;2023-05-12T10:21:13;101579.33;;;15.76;55.82
50632;BME280;49583;45.590;-122.498;2023-05-12T10:23:48;101582.36;;;15.74;56.05
50632;BME280;49583;45.590;-122.498;2023-05-12T10:26:21;101585.23;;;15.70;56.14
50632;BME280;49583;45.590;-122.498;2023-05-12T10:28:55;101587.79;;;15.67;56.19
50632;BME280;49583;45.590;-122.498;2023-05-12T10:31:28;101587.89;;;15.62;56.34
50632;BME280;49583;45.590;-122.498;2023-05-12T10:34:02;101589.73;;;15.60;56.40
50632;BME280;49583;45.590;-122.498;2023-05-12T10:36:50;101592.52;;;15.56;56.58
50632;BME280;49583;45.590;-122.498;2023-05-12T10:39:47;101593.36;;;15.51;56.59
50632;BME280;49583;45.590;-122.498;2023-05-12T10:42:22;101595.79;;;15.45;56.74
50632;BME280;49583;45.590;-122.498;2023-05-12T10:44:52;101603.99;;;15.42;56.84
50632;BME280;49583;45.590;-122.498;2023-05-12T10:47:34;101605.05;;;15.37;56.97
50632;BME280;49583;45.590;-122.498;2023-05-12T10:50:08;101606.46;;;15.32;57.13
50632;BME280;49583;45.590;-122.498;2023-05-12T10:52:41;101607.02;;;15.28;57.15
50632;BME280;49583;45.590;-122.498;2023-05-12T10:55:32;101616.35;;;15.25;57.32
50632;BME280;49583;45.590;-122.498;2023-05-12T10:57:52;101617.80;;;15.22;57.53
50632;BME280;49583;45.590;-122.498;2023-05-12T11:00:27;101619.61;;;15.19;57.71
50632;BME280;49583;45.590;-122.498;2023-05-12T11:03:04;101617.52;;;15.15;57.77
50632;BME280;49583;45.590;-122.498;2023-05-12T11:05:44;101619.90;;;15.13;57.93
50632;BME280;49583;45.590;-122.498;2023-05-12T11:08:17;101620.61;;;15.07;57.97
50632;BME280;49583;45.590;-122.498;2023-05-12T11:10:51;101622.07;;;15.02;57.86
50632;BME280;49583;45.590;-122.498;2023-05-12T11:13:44;101622.02;;;14.94;58.13
50632;BME280;49583;45.590;-122.498;2023-05-12T11:16:17;101623.95;;;14.92;58.15
50632;BME280;49583;45.590;-122.498;2023-05-12T11:19:02;101622.79;;;14.89;58.41
50632;BME280;49583;45.590;-122.498;2023-05-12T11:21:35;101618.73;;;14.86;58.51
50632;BME280;49583;45.590;-122.498;2023-05-12T11:24:09;101619.71;;;14.84;58.55